createdAt,value
2019-04-26T00:04:48.594Z,1010.9
2019-04-26T00:09:48.531Z,1010.8
2019-04-26T00:14:48.626Z,1010.9
2019-04-26T00:19:49.200Z,1010.9
2019-04-26T00:24:48.504Z,1010.7
2019-04-26T00:29:48.473Z,1010.7
2019-04-26T00:34:48.682Z,1010.8
2019-04-26T00:39:48.713Z,1010.8
2019-04-26T00:44:48.599Z,1010.8
2019-04-26T00:49:48.444Z,1010.8
2019-04-26T00:54:48.679Z,1010.8
2019-04-26T00:59:48.609Z,1010.8
2019-04-26T01:04:48.485Z,1010.9
2019-04-26T01:09:48.613Z,1010.8
2019-04-26T01:14:48.543Z,1010.8
2019-04-26T01:19:48.420Z,1010.7
2019-04-26T01:24:48.476Z,1010.7
2019-04-26T01:29:48.642Z,1010.9
2019-04-26T01:39:48.409Z,1010.9
2019-04-26T01:44:48.679Z,1010.7
2019-04-26T01:49:48.598Z,1010.7
2019-04-26T01:54:48.621Z,1010.7
2019-04-26T01:59:48.670Z,1010.6
2019-04-26T02:04:48.690Z,1010.5
2019-04-26T02:09:48.667Z,1010.5
2019-04-26T02:14:48.647Z,1010.6
2019-04-26T02:19:48.752Z,1010.6
2019-04-26T02:24:48.645Z,1010.6
2019-04-26T02:29:48.510Z,1010.5
2019-04-26T02:34:48.754Z,1010.4
2019-04-26T02:39:48.757Z,1010.4
2019-04-26T02:44:48.700Z,1010.3
2019-04-26T02:49:48.544Z,1010.3
2019-04-26T02:54:48.670Z,1010.3
2019-04-26T02:59:48.539Z,1010.2
2019-04-26T03:04:48.591Z,1010.2
2019-04-26T03:09:48.786Z,1010.1
2019-04-26T03:14:48.561Z,1010
2019-04-26T03:19:48.817Z,1010
2019-04-26T03:24:49.333Z,1010.1
2019-04-26T03:29:48.560Z,1010
2019-04-26T03:34:56.108Z,1010
2019-04-26T03:39:48.524Z,1009.9
2019-04-26T03:44:48.667Z,1009.9
2019-04-26T03:49:48.679Z,1010
2019-04-26T03:54:48.438Z,1009.9
2019-04-26T03:59:48.650Z,1010
2019-04-26T04:04:48.679Z,1010
2019-04-26T04:09:48.498Z,1009.9
2019-04-26T04:14:49.364Z,1009.9
2019-04-26T04:19:48.677Z,1010
2019-04-26T04:24:49.160Z,1009.9
2019-04-26T04:29:56.213Z,1009.9
2019-04-26T04:34:50.063Z,1009.9
2019-04-26T04:39:50.406Z,1009.9
2019-04-26T04:44:51.943Z,1009.8
2019-04-26T04:49:53.193Z,1009.9
2019-04-26T04:55:08.387Z,1009.8
2019-04-26T04:59:48.690Z,1009.8
2019-04-26T05:04:49.398Z,1009.9
2019-04-26T05:09:49.736Z,1009.9
2019-04-26T05:14:48.733Z,1010
2019-04-26T05:19:48.937Z,1009.9
2019-04-26T05:24:49.473Z,1009.8
2019-04-26T05:29:49.853Z,1009.8
2019-04-26T05:34:50.643Z,1009.7
2019-04-26T05:39:49.570Z,1009.8
2019-04-26T05:44:49.949Z,1009.7
2019-04-26T05:49:51.940Z,1009.6
2019-04-26T05:54:52.161Z,1009.5
2019-04-26T05:59:48.745Z,1009.6
2019-04-26T06:04:48.786Z,1009.6
2019-04-26T06:09:48.709Z,1009.6
2019-04-26T06:14:48.724Z,1009.5
2019-04-26T06:19:48.774Z,1009.4
2019-04-26T06:24:48.810Z,1009.4
2019-04-26T06:29:48.734Z,1009.3
2019-04-26T06:34:48.582Z,1009.2
2019-04-26T06:39:48.576Z,1009.2
2019-04-26T06:44:48.748Z,1009.1
2019-04-26T06:49:48.783Z,1009
2019-04-26T06:54:48.804Z,1008.9
2019-04-26T06:59:48.742Z,1008.9
2019-04-26T07:04:48.722Z,1008.7
2019-04-26T07:09:48.799Z,1008.7
2019-04-26T07:14:48.733Z,1008.6
2019-04-26T07:19:48.586Z,1008.6
2019-04-26T07:24:48.633Z,1008.5
2019-04-26T07:29:48.846Z,1008.5
2019-04-26T07:34:48.753Z,1008.5
2019-04-26T07:39:48.617Z,1008.5
2019-04-26T07:44:48.877Z,1008.6
2019-04-26T07:49:48.596Z,1008.5
2019-04-26T07:54:48.818Z,1008.4
2019-04-26T07:59:48.972Z,1008.3
2019-04-26T08:04:48.642Z,1008.4
2019-04-26T08:10:00.367Z,1008.4
2019-04-26T08:14:48.638Z,1008.4
2019-04-26T08:19:48.622Z,1008.4
2019-04-26T08:24:48.825Z,1008.3
2019-04-26T08:29:49.498Z,1008.4
2019-04-26T08:34:48.874Z,1008.3
2019-04-26T08:39:52.332Z,1008.4
2019-04-26T08:44:51.446Z,1008.4
2019-04-26T08:49:48.871Z,1008.4
2019-04-26T08:54:48.640Z,1008.5
2019-04-26T08:59:48.833Z,1008.3
2019-04-26T09:04:48.644Z,1008.3
2019-04-26T09:10:11.087Z,1008.4
2019-04-26T09:14:48.717Z,1008.4
2019-04-26T09:19:48.883Z,1008.4
2019-04-26T09:24:48.826Z,1008.3
2019-04-26T09:29:48.846Z,1008.2
2019-04-26T09:34:48.668Z,1008.1
2019-04-26T09:39:48.801Z,1008.1
2019-04-26T09:44:48.809Z,1008.2
2019-04-26T09:49:48.893Z,1008.2
2019-04-26T09:54:48.921Z,1008.1
2019-04-26T09:59:48.623Z,1008.1
2019-04-26T10:04:48.872Z,1008.3
2019-04-26T10:10:00.926Z,1008.4
2019-04-26T10:14:48.865Z,1008.5
2019-04-26T10:19:48.723Z,1008.6
2019-04-26T10:24:48.743Z,1008.7
2019-04-26T10:29:48.698Z,1008.7
2019-04-26T10:34:49.318Z,1008.8
2019-04-26T10:39:48.934Z,1008.9
2019-04-26T10:44:48.943Z,1008.9
2019-04-26T10:49:48.764Z,1009
2019-04-26T10:54:48.931Z,1009.1
2019-04-26T10:59:48.976Z,1009.1
2019-04-26T11:04:48.899Z,1009.3
2019-04-26T11:09:48.869Z,1009.6
2019-04-26T11:14:48.888Z,1009.6
2019-04-26T11:19:48.715Z,1009.8
2019-04-26T11:24:55.037Z,1009.8
2019-04-26T11:29:54.717Z,1009.8
2019-04-26T11:34:49.082Z,1009.8
2019-04-26T11:39:49.002Z,1009.9
2019-04-26T11:44:49.028Z,1010
2019-04-26T11:49:50.768Z,1009.9
2019-04-26T11:54:56.232Z,1010
2019-04-26T11:59:49.761Z,1010
2019-04-26T12:04:55.058Z,1010
2019-04-26T12:09:48.825Z,1010.1
2019-04-26T12:14:48.754Z,1010
2019-04-26T12:19:53.680Z,1010.2
2019-04-26T12:24:48.899Z,1010.3
2019-04-26T12:29:50.268Z,1010.3
2019-04-26T12:34:48.789Z,1010.4
2019-04-26T12:39:48.782Z,1010.5
2019-04-26T12:44:48.848Z,1010.6
2019-04-26T12:49:48.772Z,1010.7
2019-04-26T12:54:49.047Z,1010.7
2019-04-26T12:59:48.938Z,1010.5
2019-04-26T13:04:49.002Z,1010.5
2019-04-26T13:09:48.793Z,1010.5
2019-04-26T13:14:48.779Z,1010.4
2019-04-26T13:19:55.725Z,1010.3
2019-04-26T13:24:48.824Z,1010.4
2019-04-26T13:30:06.698Z,1010.4
2019-04-26T13:34:48.988Z,1010.4
2019-04-26T13:39:56.700Z,1010.3
2019-04-26T13:44:49.065Z,1010.4
2019-04-26T13:49:53.653Z,1010.4
2019-04-26T13:54:56.490Z,1010.4
2019-04-26T13:59:48.821Z,1010.5
2019-04-26T14:04:54.108Z,1010.6
2019-04-26T14:09:49.009Z,1010.7
2019-04-26T14:14:49.072Z,1010.9
2019-04-26T14:19:51.318Z,1010.8
2019-04-26T14:24:49.026Z,1011
2019-04-26T14:29:48.969Z,1011.1
2019-04-26T14:34:48.822Z,1011.6
2019-04-26T14:39:58.904Z,1012.1
2019-04-26T14:44:50.373Z,1012.2
2019-04-26T14:49:48.835Z,1012.6
2019-04-26T14:54:48.842Z,1012.9
2019-04-26T14:59:49.070Z,1013.1
2019-04-26T15:04:49.078Z,1013.3
2019-04-26T15:09:49.004Z,1013.7
2019-04-26T15:14:56.933Z,1013.9
2019-04-26T15:19:49.106Z,1014
2019-04-26T15:24:49.010Z,1014.1
2019-04-26T15:29:48.890Z,1014.4
2019-04-26T15:34:49.010Z,1014.5
2019-04-26T15:39:58.343Z,1015
2019-04-26T15:44:49.037Z,1015.1
2019-04-26T15:49:49.107Z,1015.2
2019-04-26T15:54:59.091Z,1015.5
2019-04-26T15:59:49.025Z,1015.6
2019-04-26T16:04:54.835Z,1015.9
2019-04-26T16:09:57.520Z,1016
2019-04-26T16:14:48.870Z,1016.1
2019-04-26T16:19:49.103Z,1016.1
2019-04-26T16:24:53.329Z,1016.1
2019-04-26T16:29:59.753Z,1016.3
2019-04-26T16:34:49.389Z,1016.3
2019-04-26T16:39:49.341Z,1016.5
2019-04-26T16:44:49.046Z,1016.6
2019-04-26T16:49:49.290Z,1016.8
2019-04-26T16:54:48.912Z,1017
2019-04-26T17:00:00.385Z,1017.1
2019-04-26T17:04:49.296Z,1017.2
2019-04-26T17:10:00.266Z,1017.3
2019-04-26T17:14:49.492Z,1017.2
2019-04-26T17:19:48.910Z,1017.3
2019-04-26T17:24:49.005Z,1017.4
2019-04-26T17:29:48.943Z,1017.5
2019-04-26T17:34:49.090Z,1017.5
2019-04-26T17:39:55.781Z,1017.7
2019-04-26T17:44:49.153Z,1017.8
2019-04-26T17:49:52.705Z,1017.7
2019-04-26T17:54:52.381Z,1017.8
2019-04-26T18:00:06.380Z,1017.8
2019-04-26T18:05:03.853Z,1018
2019-04-26T18:09:56.856Z,1017.9
2019-04-26T18:14:49.147Z,1017.9
2019-04-26T18:19:49.183Z,1017.8
2019-04-26T18:24:49.164Z,1017.8
2019-04-26T18:29:49.558Z,1018
2019-04-26T18:34:49.023Z,1018
2019-04-26T18:39:49.012Z,1018.1
2019-04-26T18:44:49.512Z,1018.5
2019-04-26T18:49:59.448Z,1018.6
2019-04-26T18:54:52.799Z,1018.6
2019-04-26T18:59:53.233Z,1018.7
2019-04-26T19:04:50.163Z,1018.8
2019-04-26T19:10:05.622Z,1018.7
2019-04-26T19:15:07.283Z,1019
2019-04-26T19:19:51.940Z,1019.1
2019-04-26T19:24:57.530Z,1019.1
2019-04-26T19:29:49.263Z,1019.2
2019-04-26T19:34:49.377Z,1019.3
2019-04-26T19:39:49.285Z,1019.3
2019-04-26T19:45:19.228Z,1019.2
2019-04-26T19:49:49.099Z,1019.3
2019-04-26T19:54:53.315Z,1019.3
2019-04-26T19:59:49.302Z,1019.4
2019-04-26T20:04:49.264Z,1019.4
2019-04-26T20:09:49.251Z,1019.4
2019-04-26T20:14:58.672Z,1019.5
2019-04-26T20:19:55.634Z,1019.4
2019-04-26T20:24:57.806Z,1019.5
2019-04-26T20:29:51.547Z,1019.5
2019-04-26T20:34:50.518Z,1019.4
2019-04-26T20:40:23.111Z,1019.4
2019-04-26T20:44:54.006Z,1019.5
2019-04-26T20:50:03.181Z,1019.7
2019-04-26T20:54:54.432Z,1019.6
2019-04-26T21:00:05.709Z,1019.6
2019-04-26T21:04:49.218Z,1019.6
2019-04-26T21:09:49.048Z,1019.5
2019-04-26T21:14:49.280Z,1019.4
2019-04-26T21:19:58.735Z,1019.4
2019-04-26T21:24:58.502Z,1019.4
2019-04-26T21:30:03.133Z,1019.5
2019-04-26T21:34:54.082Z,1019.6
2019-04-26T21:39:49.206Z,1019.4
2019-04-26T21:44:55.177Z,1019.4
2019-04-26T21:50:00.883Z,1019.5
2019-04-26T21:54:56.779Z,1019.6
2019-04-26T21:59:49.247Z,1019.5
2019-04-26T22:04:49.291Z,1019.5
2019-04-26T22:09:49.213Z,1019.5
2019-04-26T22:15:00.888Z,1019.5
2019-04-26T22:19:49.428Z,1019.5
2019-04-26T22:24:49.047Z,1019.4
2019-04-26T22:29:55.221Z,1019.2
2019-04-26T22:34:49.080Z,1019.2
2019-04-26T22:39:49.202Z,1019.2
2019-04-26T22:44:49.260Z,1019.1
2019-04-26T22:49:49.225Z,1019
2019-04-26T22:54:49.230Z,1018.9
2019-04-26T22:59:50.958Z,1018.8
2019-04-26T23:04:49.408Z,1018.8
2019-04-26T23:09:55.821Z,1018.6
2019-04-26T23:14:55.398Z,1018.5
2019-04-26T23:19:57.424Z,1018.5
2019-04-26T23:24:58.108Z,1018.4
2019-04-26T23:29:58.219Z,1018.5
2019-04-26T23:34:49.109Z,1018.6
2019-04-26T23:39:51.376Z,1018.7
2019-04-26T23:44:49.146Z,1018.6
2019-04-26T23:49:57.027Z,1018.7
2019-04-26T23:54:50.959Z,1018.7
